Time;durP1;ratioP1;P1;durP2;ratioP2;P2;SDS_P1;SDS_P2;PMS_P1;PMS_P2;Temp;Humidity;BMP_temperature;BMP_pressure;BME280_temperature;BME280_humidity;BME280_pressure;Samples;Min_cycle;Max_cycle;Signal;HPM_P1;HPM_P2
2023/01/23 00:01:50;;;;;;;14.60;12.00;;;4.50;99.90;;;;;;5043915;28;20210;-71
2023/01/23 00:04:16;;;;;;;19.70;11.67;;;4.50;99.90;;;;;;5041848;28;20929;-72
2023/01/23 00:06:42;;;;;;;15.63;11.47;;;4.60;99.90;;;;;;5044840;28;20293;-72
2023/01/23 00:09:08;;;;;;;16.03;12.10;;;4.50;99.90;;;;;;5040806;28;20190;-74
2023/01/23 00:11:33;;;;;;;17.40;13.00;;;4.50;99.90;;;;;;5048392;28;20495;-72
2023/01/23 00:14:00;;;;;;;17.50;13.17;;;4.50;99.90;;;;;;5043085;28;20962;-73
2023/01/23 00:16:28;;;;;;;17.60;12.67;;;4.50;99.90;;;;;;5048398;28;20211;-73
2023/01/23 00:18:54;;;;;;;14.80;12.37;;;4.50;99.90;;;;;;5046589;28;20490;-73
2023/01/23 00:21:22;;;;;;;14.87;10.83;;;4.40;99.90;;;;;;5041624;28;20466;-72
2023/01/23 00:23:50;;;;;;;22.40;13.63;;;4.40;99.90;;;;;;5044091;28;20600;-73
2023/01/23 00:26:19;;;;;;;14.67;11.43;;;4.40;99.90;;;;;;5040945;28;20556;-72
2023/01/23 00:28:46;;;;;;;16.47;12.40;;;4.40;99.90;;;;;;5059487;28;21177;-73
2023/01/23 00:31:15;;;;;;;18.27;12.30;;;4.50;99.90;;;;;;5045577;28;20935;-72
2023/01/23 00:33:42;;;;;;;16.10;13.00;;;4.40;99.90;;;;;;5058923;28;20449;-74
2023/01/23 00:36:08;;;;;;;18.53;13.83;;;4.40;99.90;;;;;;5039620;28;20846;-72
2023/01/23 00:38:34;;;;;;;18.07;12.80;;;4.40;99.90;;;;;;5045032;28;20758;-73
2023/01/23 00:41:01;;;;;;;16.47;13.00;;;4.40;99.90;;;;;;5036863;28;20437;-73
2023/01/23 00:43:27;;;;;;;17.97;12.97;;;4.40;99.90;;;;;;5044686;28;20241;-74
2023/01/23 00:45:53;;;;;;;17.13;12.53;;;4.40;99.90;;;;;;5038630;28;20473;-72
2023/01/23 00:48:18;;;;;;;19.20;13.40;;;4.40;99.90;;;;;;5041460;28;20450;-73
2023/01/23 00:50:44;;;;;;;16.80;12.80;;;4.40;99.90;;;;;;5049101;28;20187;-73
2023/01/23 00:53:11;;;;;;;16.70;13.27;;;4.40;99.90;;;;;;5038008;28;20905;-73
2023/01/23 00:55:37;;;;;;;17.27;13.13;;;4.30;99.90;;;;;;5040982;28;20624;-73
2023/01/23 00:58:03;;;;;;;17.13;12.50;;;4.40;99.90;;;;;;5042156;28;20442;-73
2023/01/23 01:00:28;;;;;;;20.73;14.43;;;4.40;99.90;;;;;;5043961;28;20537;-73
2023/01/23 01:02:54;;;;;;;20.70;12.03;;;4.40;99.90;;;;;;5040283;28;20211;-74
2023/01/23 01:05:20;;;;;;;15.80;12.77;;;4.40;99.90;;;;;;5047004;28;20191;-72
2023/01/23 01:07:46;;;;;;;19.33;13.20;;;4.40;99.90;;;;;;5044183;28;20206;-72
2023/01/23 01:10:12;;;;;;;19.50;13.97;;;4.40;99.90;;;;;;5040364;28;20194;-73
2023/01/23 01:12:38;;;;;;;19.57;13.07;;;4.40;99.90;;;;;;5047407;28;21117;-74
2023/01/23 01:15:05;;;;;;;18.90;14.17;;;4.40;99.90;;;;;;5054930;28;20458;-72
2023/01/23 01:17:30;;;;;;;19.93;13.87;;;4.40;99.90;;;;;;5044446;28;20260;-72
2023/01/23 01:19:56;;;;;;;19.10;12.83;;;4.40;99.90;;;;;;5044750;28;20524;-73
2023/01/23 01:22:21;;;;;;;23.70;14.20;;;4.40;99.90;;;;;;5041080;28;20217;-74
2023/01/23 01:24:47;;;;;;;18.77;13.30;;;4.40;99.90;;;;;;5043414;28;20601;-73
2023/01/23 01:27:12;;;;;;;17.70;13.20;;;4.40;99.90;;;;;;5043399;28;20187;-72
2023/01/23 01:29:38;;;;;;;19.03;12.83;;;4.40;99.90;;;;;;5042910;28;20218;-74
2023/01/23 01:32:04;;;;;;;17.93;13.27;;;4.40;99.90;;;;;;5038269;28;20301;-73
2023/01/23 01:34:30;;;;;;;19.03;12.83;;;4.40;99.90;;;;;;5045670;28;20191;-73
2023/01/23 01:36:55;;;;;;;18.80;13.17;;;4.40;99.90;;;;;;5040781;28;20441;-72
2023/01/23 01:39:21;;;;;;;20.23;12.57;;;4.40;99.90;;;;;;5048467;28;20238;-73
2023/01/23 01:41:47;;;;;;;21.40;13.77;;;4.40;99.90;;;;;;5050280;28;21741;-73
2023/01/23 01:44:21;;;;;;;23.40;13.63;;;4.30;99.90;;;;;;5048835;28;20175;-73
2023/01/23 01:46:47;;;;;;;21.03;13.50;;;4.30;99.90;;;;;;5048104;28;20605;-73
2023/01/23 01:49:29;;;;;;;19.37;13.40;;;4.30;99.90;;;;;;5047141;28;20520;-72
2023/01/23 01:52:09;;;;;;;17.90;12.60;;;4.30;99.90;;;;;;5054072;28;20556;-73
2023/01/23 01:54:54;;;;;;;17.60;12.20;;;4.30;99.90;;;;;;5051398;28;20483;-72
2023/01/23 01:57:22;;;;;;;18.60;13.60;;;4.30;99.90;;;;;;5056325;28;20437;-73
2023/01/23 01:59:58;;;;;;;18.50;12.87;;;4.30;99.90;;;;;;5046443;28;20449;-73
2023/01/23 02:02:43;;;;;;;16.97;11.60;;;4.30;99.90;;;;;;5046197;28;20452;-72
2023/01/23 02:05:28;;;;;;;17.20;12.23;;;4.30;99.90;;;;;;5051360;28;20445;-73
2023/01/23 02:08:07;;;;;;;15.27;10.80;;;4.30;99.90;;;;;;5048303;28;20527;-72
2023/01/23 02:10:34;;;;;;;19.07;12.13;;;4.30;99.90;;;;;;5043677;28;20441;-72
2023/01/23 02:13:35;;;;;;;16.70;11.47;;;4.20;99.90;;;;;;5042902;28;20457;-71
2023/01/23 02:16:13;;;;;;;16.37;11.90;;;4.20;99.90;;;;;;5039135;28;20465;-71
2023/01/23 02:18:46;;;;;;;14.83;11.20;;;4.20;99.90;;;;;;5046001;28;20490;-72
2023/01/23 02:21:14;;;;;;;17.80;12.00;;;4.10;99.90;;;;;;5040309;28;21071;-73
2023/01/23 02:24:16;;;;;;;15.37;10.70;;;4.10;99.90;;;;;;5043986;28;20513;-73
2023/01/23 02:26:43;;;;;;;18.10;11.33;;;4.10;99.90;;;;;;5015233;28;20444;-74
2023/01/23 02:29:12;;;;;;;18.00;12.57;;;4.10;99.90;;;;;;5049124;28;21069;-73
2023/01/23 02:31:51;;;;;;;17.70;11.33;;;4.20;99.90;;;;;;5048720;28;20451;-74
2023/01/23 02:34:17;;;;;;;18.63;12.23;;;4.20;99.90;;;;;;5064539;28;20437;-73
2023/01/23 02:36:47;;;;;;;16.33;10.80;;;4.20;99.90;;;;;;5051219;28;20483;-71
2023/01/23 02:39:20;;;;;;;13.83;10.37;;;4.20;99.90;;;;;;5047527;28;20176;-73
2023/01/23 02:41:48;;;;;;;14.50;10.90;;;4.20;99.90;;;;;;5053212;28;20448;-72
2023/01/23 02:44:26;;;;;;;18.90;12.13;;;4.20;99.90;;;;;;5044995;28;20931;-73
2023/01/23 02:47:00;;;;;;;22.13;12.30;;;4.20;99.90;;;;;;5052016;28;20439;-72
2023/01/23 02:49:26;;;;;;;19.87;11.77;;;4.30;99.90;;;;;;5047555;28;20434;-71
2023/01/23 02:51:53;;;;;;;13.87;11.00;;;4.30;99.90;;;;;;5051331;28;20464;-72
2023/01/23 02:54:19;;;;;;;18.17;11.80;;;4.30;99.90;;;;;;5050294;28;20430;-73
2023/01/23 02:56:45;;;;;;;17.83;12.20;;;4.30;99.90;;;;;;5051066;28;20445;-73
2023/01/23 03:01:56;;;;;;;17.20;12.63;;;4.30;99.90;;;;;;5047444;28;20241;-72
2023/01/23 03:04:21;;;;;;;16.63;11.97;;;4.30;99.90;;;;;;5047300;28;21050;-73
2023/01/23 03:06:47;;;;;;;17.67;11.00;;;4.30;99.90;;;;;;5051989;28;20445;-73
2023/01/23 03:09:15;;;;;;;15.07;10.70;;;4.30;99.90;;;;;;5049989;28;20716;-71
2023/01/23 03:11:43;;;;;;;18.80;11.70;;;4.30;99.90;;;;;;5052164;28;20195;-72
2023/01/23 03:14:17;;;;;;;16.70;11.60;;;4.30;99.90;;;;;;5051405;28;20772;-72
2023/01/23 03:16:48;;;;;;;15.43;11.40;;;4.30;99.90;;;;;;5048467;28;20495;-72
2023/01/23 03:19:15;;;;;;;17.07;12.20;;;4.30;99.90;;;;;;5049462;28;20508;-72
2023/01/23 03:21:40;;;;;;;17.57;12.10;;;4.30;99.90;;;;;;5050071;28;20469;-72
2023/01/23 03:24:08;;;;;;;16.20;10.90;;;4.30;99.90;;;;;;5049716;28;20952;-73
2023/01/23 03:26:33;;;;;;;16.63;10.77;;;4.30;99.90;;;;;;5053484;28;20187;-74
2023/01/23 03:31:44;;;;;;;16.77;11.10;;;4.30;99.90;;;;;;5048326;28;20252;-73
2023/01/23 03:34:10;;;;;;;16.80;11.40;;;4.30;99.90;;;;;;5049105;28;21595;-73
2023/01/23 03:36:36;;;;;;;20.60;11.10;;;4.30;99.90;;;;;;5043388;28;21313;-74
2023/01/23 03:41:52;;;;;;;17.67;12.30;;;4.30;99.90;;;;;;5045784;28;20445;-73
2023/01/23 03:44:19;;;;;;;18.00;11.37;;;4.30;99.90;;;;;;5046655;28;20485;-74
2023/01/23 03:46:49;;;;;;;15.90;11.63;;;4.30;99.90;;;;;;5053289;28;21891;-74
2023/01/23 03:49:15;;;;;;;16.17;11.07;;;4.30;99.90;;;;;;5045530;28;20894;-74
2023/01/23 03:51:40;;;;;;;15.50;11.17;;;4.40;99.90;;;;;;5048509;28;20444;-74
2023/01/23 03:54:06;;;;;;;16.07;12.03;;;4.40;99.90;;;;;;5048395;28;21024;-72
2023/01/23 03:56:31;;;;;;;15.77;10.37;;;4.40;99.90;;;;;;5052191;28;20583;-72
2023/01/23 03:58:57;;;;;;;18.73;11.17;;;4.40;99.90;;;;;;5044770;28;20207;-72
2023/01/23 04:01:23;;;;;;;20.40;10.80;;;4.30;99.90;;;;;;5049506;28;20286;-74
2023/01/23 04:03:49;;;;;;;14.83;10.87;;;4.40;99.90;;;;;;5046835;28;20538;-72
2023/01/23 04:06:15;;;;;;;15.40;10.33;;;4.30;99.90;;;;;;5043975;28;20441;-72
2023/01/23 04:08:41;;;;;;;15.57;11.07;;;4.40;99.90;;;;;;5047176;28;21013;-72
2023/01/23 04:11:09;;;;;;;16.10;10.00;;;4.40;99.90;;;;;;5044217;28;20460;-72
2023/01/23 04:13:35;;;;;;;17.63;11.13;;;4.40;99.90;;;;;;5045607;28;20198;-72
2023/01/23 04:16:01;;;;;;;16.00;10.33;;;4.40;99.90;;;;;;5047503;28;21072;-73
2023/01/23 04:18:27;;;;;;;15.63;10.63;;;4.40;99.90;;;;;;5046385;28;20201;-73
2023/01/23 04:20:53;;;;;;;16.97;12.37;;;4.40;99.90;;;;;;5049820;28;20463;-73
2023/01/23 04:23:18;;;;;;;16.43;10.27;;;4.40;99.90;;;;;;5048029;28;20849;-74
2023/01/23 04:25:44;;;;;;;15.50;10.83;;;4.40;99.90;;;;;;5062071;28;20437;-73
2023/01/23 04:28:10;;;;;;;17.10;10.93;;;4.40;99.90;;;;;;5043357;28;20456;-73
2023/01/23 04:30:35;;;;;;;12.80;9.90;;;4.30;99.90;;;;;;5047463;28;20183;-74
2023/01/23 04:33:01;;;;;;;14.53;10.20;;;4.40;99.90;;;;;;5045957;28;20887;-73
2023/01/23 04:35:26;;;;;;;14.50;9.77;;;4.40;99.90;;;;;;5051359;28;20849;-73
2023/01/23 04:37:52;;;;;;;17.43;10.93;;;4.40;99.90;;;;;;5046344;28;20182;-70
2023/01/23 04:40:17;;;;;;;15.07;10.70;;;4.40;99.90;;;;;;5043105;28;20705;-72
2023/01/23 04:42:43;;;;;;;18.17;10.60;;;4.40;99.90;;;;;;5046271;28;20230;-71
2023/01/23 04:45:09;;;;;;;14.53;10.30;;;4.40;99.90;;;;;;5031062;28;20195;-70
2023/01/23 04:47:35;;;;;;;13.57;9.77;;;4.40;99.90;;;;;;5035638;28;20194;-70
2023/01/23 04:50:02;;;;;;;15.57;10.80;;;4.30;99.90;;;;;;5031787;28;20437;-70
2023/01/23 04:52:27;;;;;;;17.00;10.30;;;4.30;99.90;;;;;;5034547;28;21646;-70
2023/01/23 04:54:53;;;;;;;24.83;14.77;;;4.30;99.90;;;;;;5039524;28;20776;-71
2023/01/23 04:57:18;;;;;;;18.77;12.17;;;4.40;99.90;;;;;;5041490;28;20203;-71
2023/01/23 04:59:44;;;;;;;19.47;10.57;;;4.30;99.90;;;;;;5039017;28;20427;-71
2023/01/23 05:02:09;;;;;;;16.23;10.20;;;4.30;99.90;;;;;;5039023;28;21298;-71
2023/01/23 05:04:35;;;;;;;15.40;10.33;;;4.30;99.90;;;;;;5037835;28;20234;-71
2023/01/23 05:07:01;;;;;;;15.17;10.10;;;4.30;99.90;;;;;;5026315;28;20232;-72
2023/01/23 05:09:26;;;;;;;13.83;9.53;;;4.30;99.90;;;;;;5035601;28;20266;-71
2023/01/23 05:11:52;;;;;;;15.73;10.43;;;4.30;99.90;;;;;;5049048;28;20202;-74
2023/01/23 05:14:18;;;;;;;14.63;10.67;;;4.30;99.90;;;;;;5044647;28;20192;-73
2023/01/23 05:16:43;;;;;;;14.10;10.50;;;4.30;99.90;;;;;;5048058;28;20333;-73
2023/01/23 05:19:09;;;;;;;18.10;10.63;;;4.30;99.90;;;;;;5044307;28;20174;-70
2023/01/23 05:21:34;;;;;;;15.83;10.20;;;4.30;99.90;;;;;;5042390;28;20210;-73
2023/01/23 05:24:00;;;;;;;21.63;10.77;;;4.30;99.90;;;;;;5045697;28;20294;-72
2023/01/23 05:26:26;;;;;;;13.93;10.10;;;4.30;99.90;;;;;;5044515;28;20179;-71
2023/01/23 05:28:51;;;;;;;13.47;9.43;;;4.30;99.90;;;;;;5049836;28;20262;-71
2023/01/23 05:31:17;;;;;;;16.00;9.83;;;4.20;99.90;;;;;;5051790;28;20201;-72
2023/01/23 05:33:42;;;;;;;14.07;9.63;;;4.30;99.90;;;;;;5049048;28;20295;-70
2023/01/23 05:36:08;;;;;;;14.60;9.90;;;4.20;99.90;;;;;;5050122;28;20202;-71
2023/01/23 05:38:33;;;;;;;13.50;9.40;;;4.30;99.90;;;;;;5049342;28;20714;-70
2023/01/23 05:40:59;;;;;;;13.97;9.33;;;4.20;99.90;;;;;;5048979;28;20266;-70
2023/01/23 05:43:25;;;;;;;17.13;10.33;;;4.30;99.90;;;;;;5046379;28;20204;-70
2023/01/23 05:45:50;;;;;;;13.63;8.83;;;4.30;99.90;;;;;;5049845;28;20214;-69
2023/01/23 05:48:16;;;;;;;15.53;10.07;;;4.20;99.90;;;;;;5049859;28;20188;-71
2023/01/23 05:50:41;;;;;;;14.80;9.33;;;4.20;99.90;;;;;;5049669;28;20179;-70
2023/01/23 05:53:07;;;;;;;18.93;10.23;;;4.30;99.90;;;;;;5049495;28;20221;-70
2023/01/23 05:55:32;;;;;;;15.20;9.10;;;4.20;99.90;;;;;;5051970;28;20850;-71
2023/01/23 05:57:58;;;;;;;15.77;9.90;;;4.20;99.90;;;;;;5048810;28;20177;-70
2023/01/23 06:00:23;;;;;;;15.23;9.73;;;4.20;99.90;;;;;;5051742;28;20175;-70
2023/01/23 06:02:49;;;;;;;14.50;9.90;;;4.10;99.90;;;;;;5055601;28;20714;-70
2023/01/23 06:05:15;;;;;;;15.10;10.10;;;4.10;99.90;;;;;;5050650;28;20661;-71
2023/01/23 06:07:40;;;;;;;15.93;10.40;;;4.10;99.90;;;;;;5050801;28;20218;-71
2023/01/23 06:10:07;;;;;;;17.10;9.20;;;4.00;99.90;;;;;;5056521;28;20286;-70
2023/01/23 06:12:32;;;;;;;16.10;9.53;;;4.00;99.90;;;;;;5050948;28;20214;-71
2023/01/23 06:14:58;;;;;;;14.50;9.70;;;4.00;99.90;;;;;;5054710;28;20461;-71
2023/01/23 06:17:23;;;;;;;15.43;10.97;;;3.90;99.90;;;;;;5049748;28;20188;-70
2023/01/23 06:19:49;;;;;;;13.93;9.77;;;3.90;99.90;;;;;;5046284;28;20878;-70
2023/01/23 06:22:14;;;;;;;13.50;9.00;;;3.90;99.90;;;;;;5043739;28;20284;-72
2023/01/23 06:24:40;;;;;;;14.57;9.97;;;3.90;99.90;;;;;;5054852;28;20225;-72
2023/01/23 06:27:08;;;;;;;17.90;8.87;;;3.90;99.90;;;;;;5049330;28;20190;-72
2023/01/23 06:29:35;;;;;;;14.13;9.40;;;3.80;99.90;;;;;;5037007;28;20184;-70
2023/01/23 06:32:01;;;;;;;14.70;9.60;;;3.80;99.90;;;;;;5047303;28;20670;-72
2023/01/23 06:34:27;;;;;;;13.13;9.27;;;3.80;99.90;;;;;;5052644;28;20537;-71
2023/01/23 06:36:52;;;;;;;16.30;10.30;;;3.70;99.90;;;;;;5052363;28;20520;-71
2023/01/23 06:39:18;;;;;;;14.20;9.10;;;3.70;99.90;;;;;;5049831;28;20544;-72
2023/01/23 06:41:44;;;;;;;14.50;9.00;;;3.70;99.90;;;;;;5048439;28;20211;-68
2023/01/23 06:44:09;;;;;;;12.40;8.87;;;3.70;99.90;;;;;;5050489;28;20604;-70
2023/01/23 06:46:35;;;;;;;17.00;9.83;;;3.70;99.90;;;;;;5050096;28;20183;-71
2023/01/23 06:49:01;;;;;;;14.17;8.80;;;3.70;99.90;;;;;;5053135;28;20187;-70
2023/01/23 06:51:27;;;;;;;19.97;10.10;;;3.70;99.90;;;;;;5047589;28;20449;-70
2023/01/23 06:53:52;;;;;;;16.73;10.80;;;3.70;99.90;;;;;;5053197;28;20429;-70
2023/01/23 06:56:18;;;;;;;14.83;10.57;;;3.70;99.90;;;;;;5050900;28;20206;-71
2023/01/23 06:58:44;;;;;;;18.90;10.50;;;3.80;99.90;;;;;;5050379;28;20210;-70
2023/01/23 07:01:14;;;;;;;15.20;9.67;;;3.80;99.90;;;;;;5048022;28;20712;-71
2023/01/23 07:03:41;;;;;;;12.70;9.10;;;3.80;99.90;;;;;;5046015;28;20873;-70
2023/01/23 07:06:06;;;;;;;14.87;10.53;;;3.80;99.90;;;;;;5046400;28;20429;-69
2023/01/23 07:08:33;;;;;;;15.87;10.30;;;3.80;99.90;;;;;;5048091;28;20483;-70
2023/01/23 07:10:59;;;;;;;17.50;10.20;;;3.80;99.90;;;;;;5043276;28;20179;-71
2023/01/23 07:13:25;;;;;;;14.00;9.27;;;3.90;99.90;;;;;;5043807;28;21455;-70
2023/01/23 07:15:50;;;;;;;13.17;8.97;;;3.90;99.90;;;;;;5049920;28;20964;-69
2023/01/23 07:18:16;;;;;;;19.00;12.57;;;3.90;99.90;;;;;;5045626;28;20310;-70
2023/01/23 07:20:45;;;;;;;16.00;9.90;;;3.90;99.90;;;;;;5050663;28;20185;-72
2023/01/23 07:23:11;;;;;;;15.97;9.73;;;3.90;99.90;;;;;;5051223;28;20211;-69
2023/01/23 07:25:37;;;;;;;14.30;9.20;;;3.90;99.90;;;;;;5041483;28;20475;-69
2023/01/23 07:28:04;;;;;;;13.87;9.80;;;3.90;99.90;;;;;;5053375;28;20185;-70
2023/01/23 07:30:30;;;;;;;15.33;9.40;;;4.00;99.90;;;;;;5050013;28;20422;-69
2023/01/23 07:32:57;;;;;;;16.33;10.30;;;4.00;99.90;;;;;;5047390;28;20542;-69
2023/01/23 07:35:23;;;;;;;15.23;10.40;;;4.00;99.90;;;;;;5046609;28;20479;-68
2023/01/23 07:37:48;;;;;;;14.60;9.67;;;4.00;99.90;;;;;;5053325;28;20835;-68
2023/01/23 07:40:14;;;;;;;15.73;10.30;;;4.00;99.90;;;;;;5053603;28;20421;-67
2023/01/23 07:42:40;;;;;;;16.60;9.47;;;4.00;99.90;;;;;;5046560;28;20272;-68
2023/01/23 07:45:08;;;;;;;14.10;9.70;;;4.00;99.90;;;;;;5047034;28;20730;-69
2023/01/23 07:47:34;;;;;;;14.77;9.47;;;4.10;99.90;;;;;;5048617;28;20834;-68
2023/01/23 07:50:00;;;;;;;17.43;11.73;;;4.10;99.90;;;;;;5048649;28;20987;-69
2023/01/23 07:52:25;;;;;;;13.73;9.00;;;4.10;99.90;;;;;;5049090;28;20543;-68
2023/01/23 07:54:51;;;;;;;15.97;10.40;;;4.10;99.90;;;;;;5048898;28;20206;-67
2023/01/23 07:57:16;;;;;;;17.20;10.97;;;4.20;99.90;;;;;;5051735;28;20179;-67
2023/01/23 07:59:42;;;;;;;14.67;10.03;;;4.20;99.90;;;;;;5047849;28;20179;-68
2023/01/23 08:02:09;;;;;;;16.67;10.03;;;4.20;99.90;;;;;;5051558;28;20230;-68
2023/01/23 08:04:35;;;;;;;18.17;10.80;;;4.20;99.90;;;;;;5050552;28;20185;-68
2023/01/23 08:07:01;;;;;;;18.60;9.97;;;4.20;99.90;;;;;;5048144;28;20536;-69
2023/01/23 08:09:27;;;;;;;17.67;10.80;;;4.20;99.90;;;;;;5047507;28;21024;-68
2023/01/23 08:11:53;;;;;;;15.00;10.10;;;4.20;99.90;;;;;;5050511;28;20468;-67
2023/01/23 08:14:19;;;;;;;15.63;9.43;;;4.30;99.90;;;;;;5052317;28;20252;-69
2023/01/23 08:16:51;;;;;;;16.00;10.50;;;4.30;99.90;;;;;;5052895;28;20600;-69
2023/01/23 08:19:17;;;;;;;17.90;10.80;;;4.30;99.90;;;;;;5051020;28;21188;-68
2023/01/23 08:21:44;;;;;;;14.97;9.23;;;4.40;99.90;;;;;;5049077;28;20449;-69
2023/01/23 08:24:11;;;;;;;19.33;11.00;;;4.40;99.90;;;;;;5048144;28;20919;-69
2023/01/23 08:26:37;;;;;;;17.13;9.80;;;4.40;99.90;;;;;;5051037;28;20421;-67
2023/01/23 08:29:03;;;;;;;19.43;10.60;;;4.40;99.90;;;;;;5051707;28;20945;-68
2023/01/23 08:31:28;;;;;;;15.53;10.47;;;4.50;99.90;;;;;;5050673;28;20469;-68
2023/01/23 08:33:55;;;;;;;16.43;10.67;;;4.50;99.90;;;;;;5051544;28;21153;-69
2023/01/23 08:36:21;;;;;;;15.03;10.27;;;4.60;99.90;;;;;;5048735;28;20203;-69
2023/01/23 08:38:46;;;;;;;17.67;11.30;;;4.60;99.90;;;;;;5046670;28;20484;-68
2023/01/23 08:41:13;;;;;;;14.90;10.07;;;4.60;99.90;;;;;;5052336;28;20557;-68
2023/01/23 08:43:40;;;;;;;13.90;10.00;;;4.70;99.90;;;;;;5050319;28;21839;-70
2023/01/23 08:46:06;;;;;;;14.03;9.10;;;4.70;99.90;;;;;;5050164;28;20512;-68
2023/01/23 08:48:34;;;;;;;16.97;11.17;;;4.80;99.90;;;;;;5047913;28;20426;-68
2023/01/23 08:51:05;;;;;;;14.20;9.63;;;4.80;99.90;;;;;;5050672;28;20494;-69
2023/01/23 08:53:32;;;;;;;19.40;11.03;;;4.80;99.90;;;;;;5049086;28;21097;-69
2023/01/23 08:56:06;;;;;;;15.20;10.40;;;4.90;99.90;;;;;;5050006;28;20457;-69
2023/01/23 08:58:31;;;;;;;15.27;9.87;;;4.90;99.90;;;;;;5045536;28;21124;-69
2023/01/23 09:00:57;;;;;;;15.80;10.43;;;4.90;99.90;;;;;;5051123;28;20455;-69
2023/01/23 09:03:23;;;;;;;17.60;10.73;;;5.00;99.90;;;;;;5050199;28;20237;-69
2023/01/23 09:05:49;;;;;;;21.73;11.70;;;5.00;99.90;;;;;;5067657;28;20721;-68
2023/01/23 09:08:15;;;;;;;16.90;10.40;;;5.00;99.90;;;;;;5044112;28;20434;-68
2023/01/23 09:10:40;;;;;;;18.77;11.50;;;4.90;99.90;;;;;;5048229;28;20949;-67
2023/01/23 09:13:06;;;;;;;32.80;20.67;;;4.80;99.90;;;;;;5046213;28;20728;-68
2023/01/23 09:15:31;;;;;;;21.10;13.80;;;4.90;99.90;;;;;;5048747;28;20588;-69
2023/01/23 09:17:57;;;;;;;22.00;12.33;;;4.90;99.90;;;;;;5046455;28;20271;-68
2023/01/23 09:20:27;;;;;;;17.37;11.60;;;5.00;99.90;;;;;;5048925;28;20291;-67
2023/01/23 09:22:53;;;;;;;20.23;12.20;;;5.00;99.90;;;;;;5048282;28;20218;-68
2023/01/23 09:25:19;;;;;;;17.63;10.60;;;5.10;99.90;;;;;;5049858;28;20446;-68
2023/01/23 09:27:45;;;;;;;21.50;11.47;;;5.10;99.90;;;;;;5049062;28;20461;-68
2023/01/23 09:30:11;;;;;;;19.43;11.00;;;5.20;99.90;;;;;;5050473;28;20191;-68
2023/01/23 09:32:36;;;;;;;19.03;12.63;;;5.20;99.90;;;;;;5048070;28;20199;-68
2023/01/23 09:35:02;;;;;;;21.03;12.20;;;5.20;99.90;;;;;;5048943;28;20464;-69
2023/01/23 09:37:58;;;;;;;18.70;11.50;;;5.20;99.90;;;;;;5052125;28;20471;-69
2023/01/23 09:40:21;;;;;;;19.50;11.80;;;5.20;99.90;;;;;;5052934;28;21097;-69
2023/01/23 09:42:49;;;;;;;17.37;11.10;;;5.10;99.90;;;;;;5053079;28;20471;-69
2023/01/23 09:45:18;;;;;;;19.73;12.37;;;5.20;99.90;;;;;;5050078;28;20434;-68
2023/01/23 09:48:27;;;;;;;17.70;10.73;;;5.20;99.90;;;;;;5047566;28;21093;-70
2023/01/23 09:51:28;;;;;;;20.10;11.23;;;5.10;99.90;;;;;;5042020;28;20421;-68
2023/01/23 09:54:43;;;;;;;19.13;11.00;;;5.10;99.90;;;;;;5053109;28;20487;-68
2023/01/23 09:57:16;;;;;;;21.17;11.80;;;5.10;99.90;;;;;;4994778;28;20439;-69
2023/01/23 09:59:49;;;;;;;21.40;12.23;;;5.10;99.90;;;;;;4992529;28;20474;-68
2023/01/23 10:02:18;;;;;;;20.47;12.80;;;5.10;99.90;;;;;;5002096;28;20515;-70
2023/01/23 10:04:49;;;;;;;17.30;12.00;;;5.10;99.90;;;;;;5046519;28;20449;-68
2023/01/23 10:07:49;;;;;;;21.30;12.87;;;5.20;99.90;;;;;;5048620;28;20464;-69
2023/01/23 10:10:43;;;;;;;22.00;12.93;;;5.20;99.90;;;;;;5047740;28;20532;-67
2023/01/23 10:13:47;;;;;;;25.20;13.53;;;5.20;99.90;;;;;;5044091;28;20642;-69
2023/01/23 10:16:27;;;;;;;20.60;11.80;;;5.20;99.90;;;;;;5052266;28;20619;-67
2023/01/23 10:19:25;;;;;;;21.17;11.43;;;5.30;99.90;;;;;;5043587;28;20807;-68
2023/01/23 10:21:56;;;;;;;18.90;12.73;;;5.30;99.90;;;;;;5039986;28;20530;-67
2023/01/23 10:24:46;;;;;;;18.30;11.17;;;5.40;99.90;;;;;;5049445;28;20437;-70
2023/01/23 10:27:28;;;;;;;21.23;11.83;;;5.30;99.90;;;;;;5051160;28;20964;-70
2023/01/23 10:30:12;;;;;;;19.67;12.33;;;5.40;99.90;;;;;;5050813;28;20590;-68
2023/01/23 10:32:49;;;;;;;16.90;11.20;;;5.50;99.90;;;;;;5048729;28;20543;-69
2023/01/23 10:35:21;;;;;;;19.83;11.83;;;5.50;99.90;;;;;;5050261;28;21218;-68
2023/01/23 10:37:54;;;;;;;18.60;11.47;;;5.60;99.90;;;;;;5050707;28;20413;-68
2023/01/23 10:43:19;;;;;;;15.00;10.23;;;5.80;99.90;;;;;;5027545;28;20491;-67
2023/01/23 10:45:46;;;;;;;14.77;10.10;;;5.80;99.90;;;;;;5051220;28;20536;-71
2023/01/23 10:48:39;;;;;;;16.57;11.10;;;5.90;99.90;;;;;;5053368;28;20935;-69
2023/01/23 10:51:31;;;;;;;18.73;10.23;;;5.90;99.90;;;;;;5053618;28;20516;-66
2023/01/23 10:54:10;;;;;;;15.70;9.37;;;6.00;99.90;;;;;;5048789;28;20670;-67
2023/01/23 10:56:57;;;;;;;13.57;9.87;;;5.90;99.90;;;;;;5051924;28;20469;-68
2023/01/23 10:59:31;;;;;;;15.97;9.93;;;5.90;99.90;;;;;;5038964;28;20441;-68
2023/01/23 11:02:00;;;;;;;15.80;11.13;;;5.90;99.90;;;;;;5049994;28;21047;-68
2023/01/23 11:04:29;;;;;;;17.37;10.70;;;5.90;99.90;;;;;;5045686;28;20418;-71
2023/01/23 11:07:11;;;;;;;14.07;10.97;;;5.90;99.90;;;;;;5048429;28;21162;-71
2023/01/23 11:09:50;;;;;;;14.03;9.77;;;5.90;99.90;;;;;;5050998;28;20896;-67
2023/01/23 11:12:24;;;;;;;15.27;10.50;;;5.90;99.90;;;;;;5052587;28;20459;-67
2023/01/23 11:14:50;;;;;;;14.30;9.60;;;5.90;99.90;;;;;;5050202;28;20429;-67
2023/01/23 11:17:22;;;;;;;18.10;9.53;;;5.90;99.90;;;;;;5051734;28;20973;-68
2023/01/23 11:19:52;;;;;;;14.23;9.17;;;5.90;99.90;;;;;;5049213;28;20433;-68
2023/01/23 11:22:23;;;;;;;14.17;9.23;;;5.90;99.90;;;;;;5048711;28;20468;-69
2023/01/23 11:24:49;;;;;;;17.30;10.67;;;5.80;99.90;;;;;;5048911;28;20499;-69
2023/01/23 11:27:14;;;;;;;16.73;9.90;;;5.80;99.90;;;;;;5052161;28;20446;-67
2023/01/23 11:30:08;;;;;;;14.70;10.07;;;5.80;99.90;;;;;;5050516;28;21103;-69
2023/01/23 11:32:52;;;;;;;15.30;10.10;;;5.80;99.90;;;;;;5035784;28;20271;-68
2023/01/23 11:35:45;;;;;;;14.33;9.50;;;5.80;99.90;;;;;;5052536;28;20880;-69
2023/01/23 11:38:14;;;;;;;14.20;8.90;;;5.90;99.90;;;;;;5019315;28;21903;-69
2023/01/23 11:40:40;;;;;;;14.63;10.47;;;6.00;99.90;;;;;;5050336;28;21068;-68
2023/01/23 11:43:15;;;;;;;16.63;9.83;;;6.20;99.90;;;;;;5047000;28;20511;-68
2023/01/23 11:46:12;;;;;;;14.40;9.90;;;6.20;99.90;;;;;;5051590;28;20194;-68
2023/01/23 11:49:22;;;;;;;12.20;9.10;;;6.30;99.90;;;;;;5049315;28;20433;-69
2023/01/23 11:51:47;;;;;;;17.60;9.83;;;6.30;99.90;;;;;;5028167;28;20483;-70
2023/01/23 11:54:26;;;;;;;14.47;9.03;;;6.40;99.90;;;;;;5049034;28;20434;-70
2023/01/23 11:57:31;;;;;;;13.93;8.87;;;6.50;99.90;;;;;;5048329;28;20283;-68
2023/01/23 12:00:16;;;;;;;14.43;8.03;;;6.60;99.90;;;;;;5044048;28;20442;-68
2023/01/23 12:02:58;;;;;;;13.20;8.90;;;6.70;99.90;;;;;;5050728;28;21015;-69
2023/01/23 12:05:54;;;;;;;14.13;9.40;;;6.70;99.90;;;;;;5050412;28;20478;-68
2023/01/23 12:08:31;;;;;;;15.23;10.50;;;6.70;99.90;;;;;;5051998;28;20449;-68
2023/01/23 12:11:13;;;;;;;13.30;9.60;;;6.80;99.90;;;;;;5051258;28;20464;-69
2023/01/23 12:13:44;;;;;;;11.80;9.10;;;7.00;99.90;;;;;;5048509;28;20433;-69
2023/01/23 12:16:27;;;;;;;13.73;9.47;;;7.10;99.90;;;;;;5050763;28;20535;-69
2023/01/23 12:19:21;;;;;;;17.73;10.17;;;7.20;99.90;;;;;;5070486;28;20417;-69
2023/01/23 12:22:10;;;;;;;12.97;9.07;;;7.40;99.90;;;;;;5041860;28;20464;-69
2023/01/23 12:24:42;;;;;;;12.67;9.07;;;7.50;99.90;;;;;;5048423;28;20429;-69
2023/01/23 12:27:20;;;;;;;15.43;9.37;;;7.50;99.90;;;;;;5051674;28;20416;-67
2023/01/23 12:30:08;;;;;;;16.00;9.40;;;7.50;99.90;;;;;;5049378;28;20845;-68
2023/01/23 12:32:56;;;;;;;14.27;9.60;;;7.40;99.90;;;;;;5048186;28;20453;-69
2023/01/23 12:35:36;;;;;;;13.20;8.33;;;7.30;99.90;;;;;;5051789;28;20468;-70
2023/01/23 12:38:10;;;;;;;14.00;9.80;;;7.20;99.90;;;;;;5050046;28;20495;-69
2023/01/23 12:40:49;;;;;;;14.87;10.10;;;7.10;99.90;;;;;;5049034;28;20429;-69
2023/01/23 12:43:27;;;;;;;15.13;9.67;;;7.00;99.90;;;;;;5050703;28;20485;-68
2023/01/23 12:46:02;;;;;;;13.60;9.33;;;6.90;99.90;;;;;;5048861;28;20429;-69
2023/01/23 12:48:58;;;;;;;13.97;9.60;;;6.80;99.90;;;;;;5054278;28;20423;-68
2023/01/23 12:51:35;;;;;;;16.63;10.80;;;6.80;99.90;;;;;;5048932;28;20453;-70
2023/01/23 12:54:06;;;;;;;14.57;8.80;;;6.80;99.90;;;;;;5048206;28;20494;-68
2023/01/23 12:56:38;;;;;;;11.20;8.53;;;6.70;99.90;;;;;;5050914;28;20508;-68
2023/01/23 12:59:14;;;;;;;13.50;8.70;;;6.70;99.90;;;;;;5044472;28;20441;-69
2023/01/23 13:02:01;;;;;;;14.40;9.83;;;6.60;99.90;;;;;;5047485;28;20533;-69
2023/01/23 13:04:38;;;;;;;16.93;11.50;;;6.60;99.90;;;;;;5059528;28;20427;-68
2023/01/23 13:07:22;;;;;;;14.63;9.43;;;6.60;99.90;;;;;;5074409;28;20441;-68
2023/01/23 13:10:20;;;;;;;14.00;9.83;;;6.50;99.90;;;;;;5041419;28;20437;-69